Sanbornville, NH (03872)

2:02 AM EDT on June 30, 2015 (GMT -0400)
Upper Brookfield | | Change Station
CLOSE
Current Station
Personal Weather Station
Location: New Hampshire, NH
Elevation: 794 ft
Nearby Weather Stations

Elev 794 ft 43.57 °N, 71.08 °W | Updated 2 seconds ago

Overcast
Overcast
61.5 °F
Feels Like 61.5 °F
N
0.0
Wind Variable Wind from South
Gusts 0.0 mph

Today
High -- | Low -- °F
--% Chance of Precip.
Yesterday
High -- | Low -- °F
Precip. -- in
5:06 AM 8:29 PM
Waxing Gibbous, 96% visible
Pressure 29.93 in
Visibility 10.0 miles
Clouds Mostly Cloudy 600 ft
Overcast 6500 ft
Dew Point 61 °F
Humidity 97%
Rainfall in
Snow Depth Not available.
UV 0.0 out of 12
Pollen 2.50 out of 12
Air Quality Not available.
Flu Activity Sporadic
METAR KLCI 300555Z AUTO 00000KT 10SM BKN006 OVC065 16/14 A2993 RMK AO1 10180 20160 52007

More Conditions Fewer Conditions

Pressure 29.93 in
Visibility 10.0 miles
Clouds Mostly Cloudy 600 ft
Overcast 6500 ft
Dew Point 61 °F
Humidity 97%
Rainfall in
Snow Depth Not available.
UV 0.0 out of 12
Pollen 2.50 out of 12
Air Quality Not available.
Flu Activity Sporadic
METAR KLCI 300555Z AUTO 00000KT 10SM BKN006 OVC065 16/14 A2993 RMK AO1 10180 20160 52007

More Conditions Fewer Conditions

10-Day Weather Forecast

×

Almanac

Astronomy

Jun. 30, 2015 Rise Set
Actual Time
Civil Twilight
Nautical Twilight
Astronomical Twilight
Moon
Length of Visible Light
Length of Day
Tomorrow will be .
, % of the Moon is Illuminated

Today's Extremes

State Highs State Lows

Community

WunderPhotos

Upload Photos

1,833,971 photos uploaded!

WunderBlogs® & News

Nearby

Air Quality

  Air Quality AQ Index Pollutant
Not available.

Snow Depth

Station Depth Elevation

Earthquake Activity

City Distance Mag. Time & Date
Minimum magnitude displayed is 2.5.

Coastal Water Temperatures

Place Temperature

Stations

Nearby Weather Stations

Station Location Temp. Windchill Dew Point Humidity Wind Precip. Elev Updated Type